sensor_id;sensor_type;location;lat;lon;timestamp;temperature;humidity
5286;DHT22;2665;53.112;7.358;2023-07-20T00:02:20;14.50;99.90
5286;DHT22;2665;53.112;7.358;2023-07-20T00:04:46;14.50;99.90
5286;DHT22;2665;53.112;7.358;2023-07-20T00:07:11;14.50;99.90
5286;DHT22;2665;53.112;7.358;2023-07-20T00:09:37;14.50;99.90
5286;DHT22;2665;53.112;7.358;2023-07-20T00:12:03;14.50;99.90
5286;DHT22;2665;53.112;7.358;2023-07-20T00:14:29;14.50;99.90
5286;DHT22;2665;53.112;7.358;2023-07-20T00:16:55;14.50;99.90
5286;DHT22;2665;53.112;7.358;2023-07-20T00:19:25;14.50;99.90
5286;DHT22;2665;53.112;7.358;2023-07-20T00:21:51;14.60;99.90
5286;DHT22;2665;53.112;7.358;2023-07-20T00:24:17;14.60;99.90
5286;DHT22;2665;53.112;7.358;2023-07-20T00:26:43;14.60;99.90
5286;DHT22;2665;53.112;7.358;2023-07-20T00:29:09;14.60;99.90
5286;DHT22;2665;53.112;7.358;2023-07-20T00:31:35;14.60;99.90
5286;DHT22;2665;53.112;7.358;2023-07-20T00:34:02;14.60;99.90
5286;DHT22;2665;53.112;7.358;2023-07-20T00:36:28;14.60;99.90
5286;DHT22;2665;53.112;7.358;2023-07-20T00:38:54;14.60;99.90
5286;DHT22;2665;53.112;7.358;2023-07-20T00:41:20;14.60;99.90
5286;DHT22;2665;53.112;7.358;2023-07-20T00:43:45;14.60;99.90
5286;DHT22;2665;53.112;7.358;2023-07-20T00:46:11;14.50;99.90
5286;DHT22;2665;53.112;7.358;2023-07-20T00:48:37;14.50;99.90
5286;DHT22;2665;53.112;7.358;2023-07-20T00:51:04;14.50;99.90
5286;DHT22;2665;53.112;7.358;2023-07-20T00:53:30;14.50;99.90
5286;DHT22;2665;53.112;7.358;2023-07-20T00:55:56;14.50;99.90
5286;DHT22;2665;53.112;7.358;2023-07-20T00:58:22;14.60;99.90
5286;DHT22;2665;53.112;7.358;2023-07-20T01:00:48;14.60;99.90
5286;DHT22;2665;53.112;7.358;2023-07-20T01:03:14;14.60;99.90
5286;DHT22;2665;53.112;7.358;2023-07-20T01:08:40;14.60;99.90
5286;DHT22;2665;53.112;7.358;2023-07-20T01:11:35;14.60;99.90
5286;DHT22;2665;53.112;7.358;2023-07-20T01:14:02;14.60;99.90
5286;DHT22;2665;53.112;7.358;2023-07-20T01:16:28;14.60;99.90
5286;DHT22;2665;53.112;7.358;2023-07-20T01:18:53;14.60;99.90
5286;DHT22;2665;53.112;7.358;2023-07-20T01:21:29;14.60;99.90
5286;DHT22;2665;53.112;7.358;2023-07-20T01:32:33;14.50;99.90
5286;DHT22;2665;53.112;7.358;2023-07-20T01:35:01;14.50;99.90
5286;DHT22;2665;53.112;7.358;2023-07-20T01:37:29;14.50;99.90
5286;DHT22;2665;53.112;7.358;2023-07-20T01:39:55;14.50;99.90
5286;DHT22;2665;53.112;7.358;2023-07-20T01:42:22;14.50;99.90
5286;DHT22;2665;53.112;7.358;2023-07-20T01:44:51;14.40;99.90
5286;DHT22;2665;53.112;7.358;2023-07-20T01:47:17;14.40;99.90
5286;DHT22;2665;53.112;7.358;2023-07-20T01:49:43;14.40;99.90
5286;DHT22;2665;53.112;7.358;2023-07-20T01:52:09;14.40;99.90
5286;DHT22;2665;53.112;7.358;2023-07-20T01:54:34;14.40;99.90
5286;DHT22;2665;53.112;7.358;2023-07-20T01:57:00;14.40;99.90
5286;DHT22;2665;53.112;7.358;2023-07-20T01:59:25;14.30;99.90
5286;DHT22;2665;53.112;7.358;2023-07-20T02:01:51;14.40;99.90
5286;DHT22;2665;53.112;7.358;2023-07-20T02:04:17;14.40;99.90
5286;DHT22;2665;53.112;7.358;2023-07-20T02:06:43;14.30;99.90
5286;DHT22;2665;53.112;7.358;2023-07-20T02:09:08;14.40;99.90
5286;DHT22;2665;53.112;7.358;2023-07-20T02:11:34;14.40;99.90
5286;DHT22;2665;53.112;7.358;2023-07-20T02:13:59;14.30;99.90
5286;DHT22;2665;53.112;7.358;2023-07-20T07:36:28;17.20;1.00
5286;DHT22;2665;53.112;7.358;2023-07-20T07:38:54;17.20;1.00
5286;DHT22;2665;53.112;7.358;2023-07-20T07:41:19;17.30;1.00
5286;DHT22;2665;53.112;7.358;2023-07-20T07:43:46;17.30;99.90
5286;DHT22;2665;53.112;7.358;2023-07-20T07:46:11;17.30;1.00
5286;DHT22;2665;53.112;7.358;2023-07-20T07:48:37;17.40;1.00
5286;DHT22;2665;53.112;7.358;2023-07-20T07:51:02;17.50;99.90
5286;DHT22;2665;53.112;7.358;2023-07-20T07:53:28;17.60;1.00
5286;DHT22;2665;53.112;7.358;2023-07-20T07:55:54;17.50;1.00
5286;DHT22;2665;53.112;7.358;2023-07-20T07:58:20;17.40;99.90
5286;DHT22;2665;53.112;7.358;2023-07-20T08:00:45;17.40;99.90
5286;DHT22;2665;53.112;7.358;2023-07-20T08:03:13;17.40;99.90
5286;DHT22;2665;53.112;7.358;2023-07-20T08:05:39;17.40;99.90
5286;DHT22;2665;53.112;7.358;2023-07-20T08:08:05;17.50;99.90
5286;DHT22;2665;53.112;7.358;2023-07-20T08:10:31;17.50;99.90
5286;DHT22;2665;53.112;7.358;2023-07-20T08:12:57;17.50;99.90
5286;DHT22;2665;53.112;7.358;2023-07-20T08:15:23;17.50;99.90
5286;DHT22;2665;53.112;7.358;2023-07-20T08:17:48;17.50;99.90
5286;DHT22;2665;53.112;7.358;2023-07-20T08:20:17;17.60;99.90
5286;DHT22;2665;53.112;7.358;2023-07-20T08:22:43;17.60;99.90
5286;DHT22;2665;53.112;7.358;2023-07-20T08:25:09;17.40;1.00
5286;DHT22;2665;53.112;7.358;2023-07-20T08:27:36;16.90;1.00
5286;DHT22;2665;53.112;7.358;2023-07-20T08:30:02;16.50;1.00
5286;DHT22;2665;53.112;7.358;2023-07-20T08:32:27;16.20;99.90
5286;DHT22;2665;53.112;7.358;2023-07-20T08:34:53;15.90;99.90
5286;DHT22;2665;53.112;7.358;2023-07-20T08:37:19;15.80;1.00
5286;DHT22;2665;53.112;7.358;2023-07-20T08:39:44;15.80;1.00
5286;DHT22;2665;53.112;7.358;2023-07-20T08:42:10;15.90;1.00
5286;DHT22;2665;53.112;7.358;2023-07-20T08:44:39;16.00;1.00
5286;DHT22;2665;53.112;7.358;2023-07-20T08:47:06;16.20;1.00
5286;DHT22;2665;53.112;7.358;2023-07-20T08:49:33;16.40;1.00
5286;DHT22;2665;53.112;7.358;2023-07-20T08:51:59;16.60;99.90
5286;DHT22;2665;53.112;7.358;2023-07-20T08:54:29;16.70;99.90
5286;DHT22;2665;53.112;7.358;2023-07-20T08:56:57;16.80;99.90
5286;DHT22;2665;53.112;7.358;2023-07-20T08:59:23;17.00;99.90
5286;DHT22;2665;53.112;7.358;2023-07-20T09:01:51;17.10;99.90
5286;DHT22;2665;53.112;7.358;2023-07-20T09:04:18;17.00;99.90
5286;DHT22;2665;53.112;7.358;2023-07-20T09:06:43;17.00;99.90
5286;DHT22;2665;53.112;7.358;2023-07-20T09:09:09;17.10;99.90
5286;DHT22;2665;53.112;7.358;2023-07-20T09:11:35;17.10;99.90
5286;DHT22;2665;53.112;7.358;2023-07-20T09:14:08;17.20;99.90
5286;DHT22;2665;53.112;7.358;2023-07-20T09:16:54;17.30;99.90
5286;DHT22;2665;53.112;7.358;2023-07-20T09:19:20;17.40;1.00
5286;DHT22;2665;53.112;7.358;2023-07-20T09:21:50;17.50;58.00
5286;DHT22;2665;53.112;7.358;2023-07-20T09:24:20;17.60;1.00
5286;DHT22;2665;53.112;7.358;2023-07-20T09:26:47;17.90;1.00
5286;DHT22;2665;53.112;7.358;2023-07-20T09:29:19;18.00;1.00
5286;DHT22;2665;53.112;7.358;2023-07-20T09:32:04;18.10;1.00
5286;DHT22;2665;53.112;7.358;2023-07-20T09:34:30;18.20;99.90
5286;DHT22;2665;53.112;7.358;2023-07-20T09:37:00;18.50;1.00
5286;DHT22;2665;53.112;7.358;2023-07-20T09:39:26;18.80;1.00
5286;DHT22;2665;53.112;7.358;2023-07-20T09:41:52;19.10;99.90
5286;DHT22;2665;53.112;7.358;2023-07-20T09:44:18;19.40;99.90
5286;DHT22;2665;53.112;7.358;2023-07-20T09:46:48;19.50;1.00
5286;DHT22;2665;53.112;7.358;2023-07-20T09:49:14;19.60;1.00
5286;DHT22;2665;53.112;7.358;2023-07-20T09:51:44;19.80;1.00
5286;DHT22;2665;53.112;7.358;2023-07-20T09:54:10;19.90;1.00
5286;DHT22;2665;53.112;7.358;2023-07-20T09:56:38;19.70;1.00
5286;DHT22;2665;53.112;7.358;2023-07-20T09:59:04;19.40;1.00
5286;DHT22;2665;53.112;7.358;2023-07-20T10:01:30;19.00;1.00
5286;DHT22;2665;53.112;7.358;2023-07-20T10:03:58;18.60;1.00
5286;DHT22;2665;53.112;7.358;2023-07-20T10:06:28;18.30;1.00
5286;DHT22;2665;53.112;7.358;2023-07-20T10:09:02;18.10;1.00
5286;DHT22;2665;53.112;7.358;2023-07-20T10:11:35;18.30;1.00
5286;DHT22;2665;53.112;7.358;2023-07-20T10:14:04;18.60;1.00
5286;DHT22;2665;53.112;7.358;2023-07-20T10:16:40;19.10;1.00
5286;DHT22;2665;53.112;7.358;2023-07-20T10:22:08;19.90;1.00
5286;DHT22;2665;53.112;7.358;2023-07-20T10:24:36;20.00;1.00
5286;DHT22;2665;53.112;7.358;2023-07-20T10:27:02;20.00;1.00
5286;DHT22;2665;53.112;7.358;2023-07-20T10:29:29;19.90;1.00
5286;DHT22;2665;53.112;7.358;2023-07-20T10:31:56;19.90;1.00
5286;DHT22;2665;53.112;7.358;2023-07-20T10:34:22;19.80;1.00
5286;DHT22;2665;53.112;7.358;2023-07-20T10:36:48;19.70;1.00
5286;DHT22;2665;53.112;7.358;2023-07-20T10:39:31;19.80;1.00
5286;DHT22;2665;53.112;7.358;2023-07-20T10:42:07;20.30;1.00
5286;DHT22;2665;53.112;7.358;2023-07-20T10:44:33;20.60;1.00
5286;DHT22;2665;53.112;7.358;2023-07-20T10:47:06;20.50;1.00
5286;DHT22;2665;53.112;7.358;2023-07-20T10:49:34;20.40;1.00
5286;DHT22;2665;53.112;7.358;2023-07-20T10:52:04;20.20;1.00
5286;DHT22;2665;53.112;7.358;2023-07-20T10:57:51;20.80;1.00
5286;DHT22;2665;53.112;7.358;2023-07-20T11:00:14;21.10;1.00
5286;DHT22;2665;53.112;7.358;2023-07-20T11:02:47;21.30;1.00
5286;DHT22;2665;53.112;7.358;2023-07-20T11:07:58;21.50;1.00
5286;DHT22;2665;53.112;7.358;2023-07-20T11:10:23;21.70;1.00
5286;DHT22;2665;53.112;7.358;2023-07-20T11:13:16;21.70;1.00
5286;DHT22;2665;53.112;7.358;2023-07-20T11:16:01;21.70;1.00
5286;DHT22;2665;53.112;7.358;2023-07-20T11:18:28;21.60;1.00
5286;DHT22;2665;53.112;7.358;2023-07-20T11:20:54;21.70;1.00
5286;DHT22;2665;53.112;7.358;2023-07-20T11:23:20;21.60;1.00
5286;DHT22;2665;53.112;7.358;2023-07-20T11:25:46;21.40;1.00
5286;DHT22;2665;53.112;7.358;2023-07-20T11:28:12;21.20;1.00
5286;DHT22;2665;53.112;7.358;2023-07-20T11:30:38;22.00;1.00
5286;DHT22;2665;53.112;7.358;2023-07-20T11:33:05;22.30;1.00
5286;DHT22;2665;53.112;7.358;2023-07-20T11:40:23;25.40;1.00
5286;DHT22;2665;53.112;7.358;2023-07-20T11:42:49;25.00;1.00
5286;DHT22;2665;53.112;7.358;2023-07-20T11:45:16;23.80;1.00
5286;DHT22;2665;53.112;7.358;2023-07-20T11:47:43;23.00;1.00
5286;DHT22;2665;53.112;7.358;2023-07-20T11:50:09;22.60;1.00
5286;DHT22;2665;53.112;7.358;2023-07-20T11:52:36;22.20;1.00
5286;DHT22;2665;53.112;7.358;2023-07-20T11:55:03;21.70;1.00
5286;DHT22;2665;53.112;7.358;2023-07-20T11:57:29;21.40;1.00
5286;DHT22;2665;53.112;7.358;2023-07-20T12:00:02;22.10;1.00
5286;DHT22;2665;53.112;7.358;2023-07-20T12:02:29;23.20;1.00
5286;DHT22;2665;53.112;7.358;2023-07-20T12:04:56;24.40;1.00
5286;DHT22;2665;53.112;7.358;2023-07-20T12:07:22;25.50;1.00
5286;DHT22;2665;53.112;7.358;2023-07-20T12:10:12;25.30;1.00
5286;DHT22;2665;53.112;7.358;2023-07-20T12:12:43;24.80;1.00
5286;DHT22;2665;53.112;7.358;2023-07-20T12:15:15;25.50;1.00
5286;DHT22;2665;53.112;7.358;2023-07-20T12:17:50;25.90;1.00
5286;DHT22;2665;53.112;7.358;2023-07-20T12:20:26;25.30;1.00
5286;DHT22;2665;53.112;7.358;2023-07-20T12:22:52;24.90;1.00
5286;DHT22;2665;53.112;7.358;2023-07-20T12:25:17;25.20;1.00
5286;DHT22;2665;53.112;7.358;2023-07-20T12:27:47;25.80;1.00
5286;DHT22;2665;53.112;7.358;2023-07-20T12:30:13;26.50;1.00
5286;DHT22;2665;53.112;7.358;2023-07-20T12:32:42;27.50;1.00
5286;DHT22;2665;53.112;7.358;2023-07-20T12:35:08;28.10;1.00
5286;DHT22;2665;53.112;7.358;2023-07-20T12:37:33;28.30;1.00
5286;DHT22;2665;53.112;7.358;2023-07-20T12:39:59;27.50;1.00
5286;DHT22;2665;53.112;7.358;2023-07-20T12:42:24;25.90;1.00
5286;DHT22;2665;53.112;7.358;2023-07-20T12:44:50;25.20;1.00
5286;DHT22;2665;53.112;7.358;2023-07-20T12:47:17;25.50;1.00
5286;DHT22;2665;53.112;7.358;2023-07-20T12:49:43;25.20;1.00
5286;DHT22;2665;53.112;7.358;2023-07-20T12:54:36;23.70;1.00
5286;DHT22;2665;53.112;7.358;2023-07-20T12:57:02;23.30;1.00
5286;DHT22;2665;53.112;7.358;2023-07-20T12:59:29;22.80;1.00
5286;DHT22;2665;53.112;7.358;2023-07-20T13:01:54;22.50;1.00
5286;DHT22;2665;53.112;7.358;2023-07-20T13:04:20;22.20;1.00
5286;DHT22;2665;53.112;7.358;2023-07-20T13:06:46;21.90;1.00
5286;DHT22;2665;53.112;7.358;2023-07-20T13:09:11;21.50;1.00
5286;DHT22;2665;53.112;7.358;2023-07-20T13:11:37;21.20;1.00
5286;DHT22;2665;53.112;7.358;2023-07-20T13:14:02;21.00;1.00
5286;DHT22;2665;53.112;7.358;2023-07-20T13:16:28;20.90;1.00
5286;DHT22;2665;53.112;7.358;2023-07-20T13:18:54;21.00;1.00
5286;DHT22;2665;53.112;7.358;2023-07-20T13:21:19;21.20;1.00
5286;DHT22;2665;53.112;7.358;2023-07-20T13:23:48;21.50;1.00
5286;DHT22;2665;53.112;7.358;2023-07-20T13:26:15;22.40;1.00
5286;DHT22;2665;53.112;7.358;2023-07-20T13:31:07;25.10;1.00
5286;DHT22;2665;53.112;7.358;2023-07-20T13:33:35;25.70;1.00
5286;DHT22;2665;53.112;7.358;2023-07-20T13:36:01;26.00;1.00
5286;DHT22;2665;53.112;7.358;2023-07-20T13:38:27;26.50;1.00
5286;DHT22;2665;53.112;7.358;2023-07-20T13:40:52;26.40;1.00
5286;DHT22;2665;53.112;7.358;2023-07-20T13:43:18;25.80;1.00
5286;DHT22;2665;53.112;7.358;2023-07-20T13:45:44;24.80;1.00
5286;DHT22;2665;53.112;7.358;2023-07-20T13:48:09;23.70;1.00
5286;DHT22;2665;53.112;7.358;2023-07-20T13:50:35;22.90;1.00
5286;DHT22;2665;53.112;7.358;2023-07-20T13:53:00;22.30;1.00
5286;DHT22;2665;53.112;7.358;2023-07-20T13:55:28;21.70;1.00
5286;DHT22;2665;53.112;7.358;2023-07-20T13:57:54;21.30;1.00
5286;DHT22;2665;53.112;7.358;2023-07-20T14:00:19;20.90;1.00
5286;DHT22;2665;53.112;7.358;2023-07-20T14:02:45;20.70;1.00
5286;DHT22;2665;53.112;7.358;2023-07-20T14:07:36;19.10;1.00
5286;DHT22;2665;53.112;7.358;2023-07-20T14:10:02;18.50;1.00
5286;DHT22;2665;53.112;7.358;2023-07-20T14:12:28;17.80;1.00
5286;DHT22;2665;53.112;7.358;2023-07-20T14:14:54;17.50;1.00
5286;DHT22;2665;53.112;7.358;2023-07-20T14:17:21;17.50;1.00
5286;DHT22;2665;53.112;7.358;2023-07-20T14:19:47;17.70;1.00
5286;DHT22;2665;53.112;7.358;2023-07-20T14:22:12;18.40;1.00
5286;DHT22;2665;53.112;7.358;2023-07-20T14:24:38;19.50;1.00
5286;DHT22;2665;53.112;7.358;2023-07-20T14:27:04;20.30;1.00
5286;DHT22;2665;53.112;7.358;2023-07-20T14:29:29;21.00;1.00
5286;DHT22;2665;53.112;7.358;2023-07-20T14:31:57;21.60;1.00
5286;DHT22;2665;53.112;7.358;2023-07-20T14:34:22;22.20;1.00
5286;DHT22;2665;53.112;7.358;2023-07-20T14:36:48;23.20;1.00
5286;DHT22;2665;53.112;7.358;2023-07-20T14:39:15;23.40;1.00
5286;DHT22;2665;53.112;7.358;2023-07-20T14:41:40;24.00;1.00
5286;DHT22;2665;53.112;7.358;2023-07-20T14:44:06;23.80;1.00
5286;DHT22;2665;53.112;7.358;2023-07-20T14:46:32;23.30;1.00
5286;DHT22;2665;53.112;7.358;2023-07-20T14:48:57;22.80;1.00
5286;DHT22;2665;53.112;7.358;2023-07-20T14:51:24;22.10;1.00
5286;DHT22;2665;53.112;7.358;2023-07-20T14:53:49;21.60;1.00
5286;DHT22;2665;53.112;7.358;2023-07-20T14:56:15;21.20;1.00
5286;DHT22;2665;53.112;7.358;2023-07-20T14:58:40;20.80;1.00
5286;DHT22;2665;53.112;7.358;2023-07-20T15:01:06;20.50;1.00
5286;DHT22;2665;53.112;7.358;2023-07-20T15:03:32;20.30;1.00
5286;DHT22;2665;53.112;7.358;2023-07-20T15:05:57;19.90;1.00
5286;DHT22;2665;53.112;7.358;2023-07-20T15:08:23;19.70;1.00
5286;DHT22;2665;53.112;7.358;2023-07-20T15:10:49;19.60;1.00
5286;DHT22;2665;53.112;7.358;2023-07-20T15:13:15;19.60;1.00
5286;DHT22;2665;53.112;7.358;2023-07-20T15:15:40;19.60;1.00
5286;DHT22;2665;53.112;7.358;2023-07-20T15:18:07;19.50;1.00
5286;DHT22;2665;53.112;7.358;2023-07-20T15:20:32;19.40;1.00
5286;DHT22;2665;53.112;7.358;2023-07-20T15:22:58;19.50;1.00
5286;DHT22;2665;53.112;7.358;2023-07-20T15:25:24;19.50;1.00
5286;DHT22;2665;53.112;7.358;2023-07-20T15:27:50;19.60;1.00
5286;DHT22;2665;53.112;7.358;2023-07-20T15:30:16;19.70;1.00
5286;DHT22;2665;53.112;7.358;2023-07-20T15:32:42;19.70;1.00
5286;DHT22;2665;53.112;7.358;2023-07-20T15:35:09;19.70;1.00
5286;DHT22;2665;53.112;7.358;2023-07-20T15:37:35;19.90;1.00
5286;DHT22;2665;53.112;7.358;2023-07-20T15:40:02;20.00;1.00
5286;DHT22;2665;53.112;7.358;2023-07-20T15:42:30;20.60;1.00
5286;DHT22;2665;53.112;7.358;2023-07-20T15:44:56;20.60;1.00
5286;DHT22;2665;53.112;7.358;2023-07-20T15:47:22;20.70;1.00
5286;DHT22;2665;53.112;7.358;2023-07-20T15:49:48;20.90;1.00
5286;DHT22;2665;53.112;7.358;2023-07-20T15:52:14;21.00;1.00
5286;DHT22;2665;53.112;7.358;2023-07-20T15:54:40;21.50;1.00
5286;DHT22;2665;53.112;7.358;2023-07-20T15:57:07;21.50;1.00
5286;DHT22;2665;53.112;7.358;2023-07-20T15:59:33;21.30;1.00
5286;DHT22;2665;53.112;7.358;2023-07-20T16:01:59;21.10;1.00
5286;DHT22;2665;53.112;7.358;2023-07-20T16:04:24;20.80;1.00
5286;DHT22;2665;53.112;7.358;2023-07-20T16:06:50;20.60;1.00
5286;DHT22;2665;53.112;7.358;2023-07-20T16:09:16;20.40;1.00
5286;DHT22;2665;53.112;7.358;2023-07-20T16:11:41;20.20;1.00
5286;DHT22;2665;53.112;7.358;2023-07-20T16:14:07;20.00;1.00
5286;DHT22;2665;53.112;7.358;2023-07-20T16:16:34;19.80;1.00
5286;DHT22;2665;53.112;7.358;2023-07-20T16:19:00;19.60;1.00
5286;DHT22;2665;53.112;7.358;2023-07-20T16:21:26;19.30;1.00
5286;DHT22;2665;53.112;7.358;2023-07-20T16:23:52;19.20;1.00
5286;DHT22;2665;53.112;7.358;2023-07-20T16:26:17;19.20;1.00
5286;DHT22;2665;53.112;7.358;2023-07-20T16:28:43;19.40;1.00
5286;DHT22;2665;53.112;7.358;2023-07-20T16:31:13;19.40;1.00
5286;DHT22;2665;53.112;7.358;2023-07-20T16:33:40;19.40;1.00
5286;DHT22;2665;53.112;7.358;2023-07-20T16:36:10;19.40;1.00
5286;DHT22;2665;53.112;7.358;2023-07-20T16:38:36;19.40;1.00
5286;DHT22;2665;53.112;7.358;2023-07-20T16:41:02;19.80;1.00
5286;DHT22;2665;53.112;7.358;2023-07-20T16:43:29;19.90;1.00
5286;DHT22;2665;53.112;7.358;2023-07-20T16:46:02;19.90;1.00
5286;DHT22;2665;53.112;7.358;2023-07-20T16:48:28;19.80;1.00
5286;DHT22;2665;53.112;7.358;2023-07-20T16:50:55;19.70;1.00
5286;DHT22;2665;53.112;7.358;2023-07-20T16:53:21;19.60;1.00
5286;DHT22;2665;53.112;7.358;2023-07-20T16:55:51;19.50;1.00
5286;DHT22;2665;53.112;7.358;2023-07-20T16:58:20;19.50;1.00
5286;DHT22;2665;53.112;7.358;2023-07-20T17:00:49;19.50;1.00
5286;DHT22;2665;53.112;7.358;2023-07-20T17:03:15;20.30;1.00
5286;DHT22;2665;53.112;7.358;2023-07-20T17:05:45;21.00;1.00
5286;DHT22;2665;53.112;7.358;2023-07-20T17:08:11;21.60;1.00
5286;DHT22;2665;53.112;7.358;2023-07-20T17:10:37;21.90;1.00
5286;DHT22;2665;53.112;7.358;2023-07-20T17:13:03;21.70;1.00
5286;DHT22;2665;53.112;7.358;2023-07-20T17:15:31;21.50;1.00
5286;DHT22;2665;53.112;7.358;2023-07-20T17:17:57;21.20;1.00
5286;DHT22;2665;53.112;7.358;2023-07-20T17:20:22;20.90;1.00
5286;DHT22;2665;53.112;7.358;2023-07-20T17:22:48;20.70;1.00
5286;DHT22;2665;53.112;7.358;2023-07-20T17:25:14;20.50;1.00
5286;DHT22;2665;53.112;7.358;2023-07-20T17:27:40;20.20;1.00
5286;DHT22;2665;53.112;7.358;2023-07-20T17:30:06;20.10;1.00
5286;DHT22;2665;53.112;7.358;2023-07-20T17:32:32;19.90;1.00
5286;DHT22;2665;53.112;7.358;2023-07-20T17:34:58;19.70;1.00
5286;DHT22;2665;53.112;7.358;2023-07-20T17:37:24;19.60;1.00
5286;DHT22;2665;53.112;7.358;2023-07-20T17:39:50;19.40;1.00
5286;DHT22;2665;53.112;7.358;2023-07-20T17:42:16;19.30;1.00
5286;DHT22;2665;53.112;7.358;2023-07-20T17:44:42;19.20;1.00
5286;DHT22;2665;53.112;7.358;2023-07-20T17:47:08;19.00;1.00
5286;DHT22;2665;53.112;7.358;2023-07-20T17:49:34;18.90;1.00
5286;DHT22;2665;53.112;7.358;2023-07-20T17:52:00;19.00;1.00
5286;DHT22;2665;53.112;7.358;2023-07-20T17:54:26;18.90;1.00
5286;DHT22;2665;53.112;7.358;2023-07-20T17:56:51;19.00;1.00
5286;DHT22;2665;53.112;7.358;2023-07-20T17:59:17;19.00;1.00
5286;DHT22;2665;53.112;7.358;2023-07-20T18:01:44;19.00;1.00
5286;DHT22;2665;53.112;7.358;2023-07-20T18:04:10;18.90;1.00
5286;DHT22;2665;53.112;7.358;2023-07-20T18:06:35;18.90;1.00
5286;DHT22;2665;53.112;7.358;2023-07-20T18:09:01;18.90;1.00
5286;DHT22;2665;53.112;7.358;2023-07-20T18:11:26;18.80;1.00
5286;DHT22;2665;53.112;7.358;2023-07-20T18:13:52;18.70;1.00
5286;DHT22;2665;53.112;7.358;2023-07-20T18:16:18;18.70;1.00
5286;DHT22;2665;53.112;7.358;2023-07-20T18:18:44;18.50;1.00
5286;DHT22;2665;53.112;7.358;2023-07-20T18:21:09;18.50;1.00
5286;DHT22;2665;53.112;7.358;2023-07-20T18:23:35;18.40;1.00
5286;DHT22;2665;53.112;7.358;2023-07-20T18:26:00;18.30;1.00
5286;DHT22;2665;53.112;7.358;2023-07-20T18:28:28;18.30;1.00
5286;DHT22;2665;53.112;7.358;2023-07-20T18:30:53;18.20;1.00
5286;DHT22;2665;53.112;7.358;2023-07-20T18:33:19;18.20;1.00
5286;DHT22;2665;53.112;7.358;2023-07-20T18:35:44;18.10;1.00
5286;DHT22;2665;53.112;7.358;2023-07-20T18:38:10;18.10;1.00
5286;DHT22;2665;53.112;7.358;2023-07-20T18:40:38;18.00;1.00
5286;DHT22;2665;53.112;7.358;2023-07-20T18:43:04;18.00;1.00
5286;DHT22;2665;53.112;7.358;2023-07-20T18:45:29;17.90;1.00
5286;DHT22;2665;53.112;7.358;2023-07-20T18:47:55;17.80;1.00
5286;DHT22;2665;53.112;7.358;2023-07-20T18:50:21;17.80;1.00
5286;DHT22;2665;53.112;7.358;2023-07-20T18:52:46;17.70;1.00
5286;DHT22;2665;53.112;7.358;2023-07-20T18:55:12;17.70;1.00
5286;DHT22;2665;53.112;7.358;2023-07-20T18:57:37;17.60;1.00
5286;DHT22;2665;53.112;7.358;2023-07-20T19:00:04;17.60;1.00
5286;DHT22;2665;53.112;7.358;2023-07-20T19:02:30;17.60;1.00
5286;DHT22;2665;53.112;7.358;2023-07-20T19:04:56;17.50;1.00
5286;DHT22;2665;53.112;7.358;2023-07-20T19:07:23;17.50;1.00
5286;DHT22;2665;53.112;7.358;2023-07-20T19:09:49;17.40;1.00
5286;DHT22;2665;53.112;7.358;2023-07-20T19:12:14;17.40;1.00
5286;DHT22;2665;53.112;7.358;2023-07-20T19:14:40;17.30;1.00
5286;DHT22;2665;53.112;7.358;2023-07-20T19:17:07;17.10;1.00
5286;DHT22;2665;53.112;7.358;2023-07-20T19:19:33;17.00;1.00
5286;DHT22;2665;53.112;7.358;2023-07-20T19:21:58;16.80;1.00
5286;DHT22;2665;53.112;7.358;2023-07-20T19:24:24;16.70;1.00
5286;DHT22;2665;53.112;7.358;2023-07-20T19:26:50;16.60;1.00
5286;DHT22;2665;53.112;7.358;2023-07-20T19:29:16;16.50;1.00
5286;DHT22;2665;53.112;7.358;2023-07-20T19:31:42;16.40;1.00
5286;DHT22;2665;53.112;7.358;2023-07-20T19:34:07;16.40;1.00
5286;DHT22;2665;53.112;7.358;2023-07-20T19:36:33;16.30;1.00
5286;DHT22;2665;53.112;7.358;2023-07-20T19:38:59;16.20;1.00
5286;DHT22;2665;53.112;7.358;2023-07-20T19:41:26;16.10;1.00
